sensor_id;sensor_type;location;lat;lon;timestamp;pressure;altitude;pressure_sealevel;temperature;humidity
39177;BME280;24904;52.208;21.192;2023-02-19T00:03:33;99947.52;;;3.58;75.66
39177;BME280;24904;52.208;21.192;2023-02-19T00:08:39;99954.52;;;3.58;75.42
39177;BME280;24904;52.208;21.192;2023-02-19T00:13:45;99947.77;;;3.48;74.94
39177;BME280;24904;52.208;21.192;2023-02-19T00:18:51;99935.39;;;3.45;75.36
39177;BME280;24904;52.208;21.192;2023-02-19T00:23:59;99945.48;;;3.43;75.13
39177;BME280;24904;52.208;21.192;2023-02-19T00:29:04;99947.23;;;3.39;75.09
39177;BME280;24904;52.208;21.192;2023-02-19T00:34:10;99937.17;;;3.38;75.00
39177;BME280;24904;52.208;21.192;2023-02-19T00:39:16;99949.55;;;3.41;74.52
39177;BME280;24904;52.208;21.192;2023-02-19T00:44:21;99928.77;;;3.44;74.44
39177;BME280;24904;52.208;21.192;2023-02-19T00:49:26;99924.08;;;3.47;74.41
39177;BME280;24904;52.208;21.192;2023-02-19T01:02:39;99928.12;;;3.55;73.95
39177;BME280;24904;52.208;21.192;2023-02-19T01:07:42;99933.52;;;3.56;73.72
39177;BME280;24904;52.208;21.192;2023-02-19T01:12:46;99933.91;;;3.56;73.81
39177;BME280;24904;52.208;21.192;2023-02-19T01:17:49;99929.99;;;3.58;73.44
39177;BME280;24904;52.208;21.192;2023-02-19T01:22:52;99927.19;;;3.52;73.37
39177;BME280;24904;52.208;21.192;2023-02-19T01:27:55;99923.67;;;3.52;73.65
39177;BME280;24904;52.208;21.192;2023-02-19T01:32:58;99922.23;;;3.57;73.66
39177;BME280;24904;52.208;21.192;2023-02-19T01:38:01;99919.02;;;3.61;73.17
39177;BME280;24904;52.208;21.192;2023-02-19T01:43:07;99919.63;;;3.64;73.11
39177;BME280;24904;52.208;21.192;2023-02-19T01:48:16;99925.92;;;3.66;72.89
39177;BME280;24904;52.208;21.192;2023-02-19T01:53:23;99926.91;;;3.66;72.66
39177;BME280;24904;52.208;21.192;2023-02-19T01:58:30;99927.52;;;3.66;72.36
39177;BME280;24904;52.208;21.192;2023-02-19T02:03:35;99919.80;;;3.64;72.07
39177;BME280;24904;52.208;21.192;2023-02-19T02:08:39;99927.60;;;3.68;72.69
39177;BME280;24904;52.208;21.192;2023-02-19T02:14:01;99928.19;;;3.75;72.31
39177;BME280;24904;52.208;21.192;2023-02-19T02:19:14;99930.45;;;3.72;71.95
39177;BME280;24904;52.208;21.192;2023-02-19T02:30:11;99923.23;;;3.69;72.37
39177;BME280;24904;52.208;21.192;2023-02-19T02:35:21;99929.09;;;3.71;72.16
39177;BME280;24904;52.208;21.192;2023-02-19T02:40:25;99929.88;;;3.71;72.21
39177;BME280;24904;52.208;21.192;2023-02-19T02:45:31;99936.00;;;3.68;72.41
39177;BME280;24904;52.208;21.192;2023-02-19T02:50:40;99930.48;;;3.64;72.23
39177;BME280;24904;52.208;21.192;2023-02-19T02:55:47;99925.68;;;3.64;73.01
39177;BME280;24904;52.208;21.192;2023-02-19T03:00:55;99931.46;;;3.70;73.00
39177;BME280;24904;52.208;21.192;2023-02-19T03:06:20;99924.04;;;3.66;72.79
39177;BME280;24904;52.208;21.192;2023-02-19T03:11:24;99917.34;;;3.62;73.06
39177;BME280;24904;52.208;21.192;2023-02-19T03:17:01;99917.41;;;3.60;73.64
39177;BME280;24904;52.208;21.192;2023-02-19T03:22:29;99919.12;;;3.57;73.51
39177;BME280;24904;52.208;21.192;2023-02-19T03:27:37;99923.33;;;3.55;73.71
39177;BME280;24904;52.208;21.192;2023-02-19T03:32:47;99921.51;;;3.52;73.63
39177;BME280;24904;52.208;21.192;2023-02-19T03:37:56;99927.17;;;3.50;73.85
39177;BME280;24904;52.208;21.192;2023-02-19T03:43:07;99927.45;;;3.46;74.02
39177;BME280;24904;52.208;21.192;2023-02-19T03:48:23;99922.71;;;3.41;73.96
39177;BME280;24904;52.208;21.192;2023-02-19T03:53:31;99911.41;;;3.37;74.29
39177;BME280;24904;52.208;21.192;2023-02-19T03:58:43;99907.52;;;3.37;74.31
39177;BME280;24904;52.208;21.192;2023-02-19T04:03:54;99901.02;;;3.32;73.97
39177;BME280;24904;52.208;21.192;2023-02-19T04:09:03;99898.94;;;3.27;74.06
39177;BME280;24904;52.208;21.192;2023-02-19T04:14:10;99901.60;;;3.28;74.22
39177;BME280;24904;52.208;21.192;2023-02-19T04:19:20;99903.69;;;3.28;74.08
39177;BME280;24904;52.208;21.192;2023-02-19T04:24:28;99906.83;;;3.24;73.97
39177;BME280;24904;52.208;21.192;2023-02-19T04:29:32;99893.15;;;3.19;73.97
39177;BME280;24904;52.208;21.192;2023-02-19T04:34:35;99887.51;;;3.14;73.83
39177;BME280;24904;52.208;21.192;2023-02-19T04:39:38;99877.79;;;3.11;73.89
39177;BME280;24904;52.208;21.192;2023-02-19T04:44:42;99869.27;;;3.04;73.70
39177;BME280;24904;52.208;21.192;2023-02-19T04:49:45;99874.87;;;3.00;73.97
39177;BME280;24904;52.208;21.192;2023-02-19T04:54:48;99870.69;;;2.98;73.77
39177;BME280;24904;52.208;21.192;2023-02-19T04:59:51;99888.64;;;2.99;73.88
39177;BME280;24904;52.208;21.192;2023-02-19T05:04:54;99893.67;;;2.93;73.60
39177;BME280;24904;52.208;21.192;2023-02-19T05:09:57;99878.91;;;2.89;73.66
39177;BME280;24904;52.208;21.192;2023-02-19T05:15:01;99875.64;;;2.91;73.99
39177;BME280;24904;52.208;21.192;2023-02-19T05:20:04;99878.86;;;2.87;73.71
39177;BME280;24904;52.208;21.192;2023-02-19T05:25:07;99878.41;;;2.79;74.11
39177;BME280;24904;52.208;21.192;2023-02-19T05:30:12;99867.45;;;2.80;74.08
39177;BME280;24904;52.208;21.192;2023-02-19T05:35:15;99867.33;;;2.79;74.35
39177;BME280;24904;52.208;21.192;2023-02-19T05:40:18;99873.09;;;2.84;74.17
39177;BME280;24904;52.208;21.192;2023-02-19T05:45:21;99859.73;;;2.88;74.39
39177;BME280;24904;52.208;21.192;2023-02-19T05:50:24;99857.00;;;2.87;74.74
39177;BME280;24904;52.208;21.192;2023-02-19T05:55:27;99861.30;;;2.81;73.97
39177;BME280;24904;52.208;21.192;2023-02-19T06:00:32;99855.79;;;2.81;74.46
39177;BME280;24904;52.208;21.192;2023-02-19T06:05:36;99857.31;;;2.85;74.69
39177;BME280;24904;52.208;21.192;2023-02-19T06:10:40;99860.47;;;2.82;74.60
39177;BME280;24904;52.208;21.192;2023-02-19T06:15:43;99859.08;;;2.82;74.63
39177;BME280;24904;52.208;21.192;2023-02-19T06:20:46;99851.51;;;2.81;74.98
39177;BME280;24904;52.208;21.192;2023-02-19T06:25:49;99863.58;;;2.84;75.07
39177;BME280;24904;52.208;21.192;2023-02-19T06:30:52;99870.17;;;2.84;75.42
39177;BME280;24904;52.208;21.192;2023-02-19T06:35:57;99871.11;;;2.90;75.01
39177;BME280;24904;52.208;21.192;2023-02-19T06:41:01;99874.77;;;2.91;74.97
39177;BME280;24904;52.208;21.192;2023-02-19T06:46:05;99872.55;;;2.84;74.96
39177;BME280;24904;52.208;21.192;2023-02-19T06:51:10;99870.55;;;2.86;75.16
39177;BME280;24904;52.208;21.192;2023-02-19T06:56:25;99866.08;;;2.94;75.20
39177;BME280;24904;52.208;21.192;2023-02-19T07:01:30;99864.92;;;2.97;74.83
39177;BME280;24904;52.208;21.192;2023-02-19T07:13:57;99879.39;;;3.08;74.94
39177;BME280;24904;52.208;21.192;2023-02-19T07:19:02;99885.88;;;3.12;75.02
39177;BME280;24904;52.208;21.192;2023-02-19T07:24:08;99885.96;;;3.12;74.79
39177;BME280;24904;52.208;21.192;2023-02-19T07:29:13;99888.46;;;3.08;74.80
39177;BME280;24904;52.208;21.192;2023-02-19T07:34:18;99887.57;;;3.07;74.95
39177;BME280;24904;52.208;21.192;2023-02-19T07:39:23;99898.00;;;2.99;74.79
39177;BME280;24904;52.208;21.192;2023-02-19T07:44:28;99898.25;;;3.06;75.42
39177;BME280;24904;52.208;21.192;2023-02-19T07:49:34;99902.42;;;3.11;75.07
39177;BME280;24904;52.208;21.192;2023-02-19T07:54:39;99903.27;;;3.03;75.11
39177;BME280;24904;52.208;21.192;2023-02-19T07:59:44;99902.33;;;3.01;75.04
39177;BME280;24904;52.208;21.192;2023-02-19T08:04:49;99906.33;;;3.14;75.40
39177;BME280;24904;52.208;21.192;2023-02-19T08:09:54;99907.17;;;3.23;75.12
39177;BME280;24904;52.208;21.192;2023-02-19T08:15:22;99909.09;;;3.32;74.58
39177;BME280;24904;52.208;21.192;2023-02-19T08:20:27;99914.83;;;3.42;74.28
39177;BME280;24904;52.208;21.192;2023-02-19T08:25:33;99918.95;;;3.42;74.49
39177;BME280;24904;52.208;21.192;2023-02-19T08:30:40;99921.63;;;3.36;74.00
39177;BME280;24904;52.208;21.192;2023-02-19T08:35:47;99923.00;;;3.38;74.45
39177;BME280;24904;52.208;21.192;2023-02-19T08:40:52;99927.59;;;3.41;74.18
39177;BME280;24904;52.208;21.192;2023-02-19T08:45:57;99933.15;;;3.50;73.93
39177;BME280;24904;52.208;21.192;2023-02-19T08:51:03;99939.20;;;3.45;73.50
39177;BME280;24904;52.208;21.192;2023-02-19T08:56:12;99935.99;;;3.49;73.82
39177;BME280;24904;52.208;21.192;2023-02-19T09:01:18;99932.92;;;3.54;73.55
39177;BME280;24904;52.208;21.192;2023-02-19T09:06:23;99926.40;;;3.54;72.75
39177;BME280;24904;52.208;21.192;2023-02-19T09:11:29;99929.74;;;3.57;73.09
39177;BME280;24904;52.208;21.192;2023-02-19T09:16:34;99929.52;;;3.62;73.03
39177;BME280;24904;52.208;21.192;2023-02-19T09:21:40;99934.27;;;3.63;72.96
39177;BME280;24904;52.208;21.192;2023-02-19T09:26:49;99933.61;;;3.74;72.93
39177;BME280;24904;52.208;21.192;2023-02-19T09:31:58;99938.16;;;3.83;73.11
39177;BME280;24904;52.208;21.192;2023-02-19T09:37:03;99935.23;;;3.79;72.23
39177;BME280;24904;52.208;21.192;2023-02-19T09:42:14;99936.98;;;3.82;72.56
39177;BME280;24904;52.208;21.192;2023-02-19T09:47:21;99935.77;;;3.86;71.74
39177;BME280;24904;52.208;21.192;2023-02-19T09:52:31;99947.08;;;3.85;71.33
39177;BME280;24904;52.208;21.192;2023-02-19T09:57:40;99948.00;;;3.82;71.63
39177;BME280;24904;52.208;21.192;2023-02-19T10:02:47;99950.02;;;3.93;71.52
39177;BME280;24904;52.208;21.192;2023-02-19T10:07:55;99952.03;;;4.00;70.92
39177;BME280;24904;52.208;21.192;2023-02-19T10:13:12;99943.75;;;3.98;70.33
39177;BME280;24904;52.208;21.192;2023-02-19T10:18:22;99936.17;;;4.13;70.28
39177;BME280;24904;52.208;21.192;2023-02-19T10:23:28;99931.86;;;4.32;69.83
39177;BME280;24904;52.208;21.192;2023-02-19T10:28:34;99941.15;;;4.53;68.74
39177;BME280;24904;52.208;21.192;2023-02-19T10:33:49;99940.80;;;4.54;67.74
39177;BME280;24904;52.208;21.192;2023-02-19T10:38:55;99944.65;;;4.58;67.98
39177;BME280;24904;52.208;21.192;2023-02-19T10:44:05;99951.89;;;4.56;67.99
39177;BME280;24904;52.208;21.192;2023-02-19T10:49:20;99957.98;;;4.57;68.07
39177;BME280;24904;52.208;21.192;2023-02-19T10:54:30;99954.84;;;4.65;68.04
39177;BME280;24904;52.208;21.192;2023-02-19T10:59:38;99963.90;;;4.74;67.15
39177;BME280;24904;52.208;21.192;2023-02-19T11:05:13;99964.42;;;4.79;66.92
39177;BME280;24904;52.208;21.192;2023-02-19T11:10:28;99962.74;;;4.94;66.61
39177;BME280;24904;52.208;21.192;2023-02-19T11:15:34;99962.11;;;4.89;64.68
39177;BME280;24904;52.208;21.192;2023-02-19T11:20:47;99973.23;;;4.80;65.07
39177;BME280;24904;52.208;21.192;2023-02-19T11:25:54;99968.96;;;4.72;64.91
39177;BME280;24904;52.208;21.192;2023-02-19T11:31:22;99968.17;;;4.64;65.26
39177;BME280;24904;52.208;21.192;2023-02-19T11:36:33;99961.15;;;4.67;65.01
39177;BME280;24904;52.208;21.192;2023-02-19T11:41:49;99960.20;;;4.64;65.31
39177;BME280;24904;52.208;21.192;2023-02-19T11:47:10;99965.16;;;4.75;65.47
39177;BME280;24904;52.208;21.192;2023-02-19T11:52:29;99967.58;;;4.75;64.80
39177;BME280;24904;52.208;21.192;2023-02-19T11:57:44;99969.66;;;4.72;64.54
39177;BME280;24904;52.208;21.192;2023-02-19T12:03:23;99973.20;;;4.68;64.76
39177;BME280;24904;52.208;21.192;2023-02-19T12:19:53;99991.02;;;5.06;65.03
39177;BME280;24904;52.208;21.192;2023-02-19T12:31:01;99992.16;;;5.37;64.08
39177;BME280;24904;52.208;21.192;2023-02-19T12:36:17;99999.34;;;5.38;63.72
39177;BME280;24904;52.208;21.192;2023-02-19T12:41:31;100010.52;;;5.28;63.03
39177;BME280;24904;52.208;21.192;2023-02-19T12:46:40;100017.02;;;5.18;62.92
39177;BME280;24904;52.208;21.192;2023-02-19T12:51:45;100028.11;;;5.09;62.79
39177;BME280;24904;52.208;21.192;2023-02-19T12:56:56;100030.96;;;4.94;63.04
39177;BME280;24904;52.208;21.192;2023-02-19T13:02:12;100035.95;;;4.86;63.43
39177;BME280;24904;52.208;21.192;2023-02-19T13:07:22;100031.49;;;4.77;63.12
39177;BME280;24904;52.208;21.192;2023-02-19T13:12:31;100033.31;;;4.91;63.30
39177;BME280;24904;52.208;21.192;2023-02-19T13:17:42;100035.83;;;5.09;62.87
39177;BME280;24904;52.208;21.192;2023-02-19T13:22:47;100035.08;;;5.27;63.04
39177;BME280;24904;52.208;21.192;2023-02-19T13:28:38;100034.17;;;5.49;62.19
39177;BME280;24904;52.208;21.192;2023-02-19T13:33:55;100041.64;;;5.52;61.08
39177;BME280;24904;52.208;21.192;2023-02-19T13:39:04;100048.05;;;5.45;60.23
39177;BME280;24904;52.208;21.192;2023-02-19T13:44:19;100047.93;;;5.43;60.33
39177;BME280;24904;52.208;21.192;2023-02-19T13:54:49;100062.98;;;5.41;60.15
39177;BME280;24904;52.208;21.192;2023-02-19T13:59:54;100074.89;;;5.42;60.43
39177;BME280;24904;52.208;21.192;2023-02-19T14:05:02;100080.26;;;5.33;60.20
39177;BME280;24904;52.208;21.192;2023-02-19T14:10:13;100083.44;;;5.27;59.16
39177;BME280;24904;52.208;21.192;2023-02-19T14:15:42;100092.80;;;5.14;59.30
39177;BME280;24904;52.208;21.192;2023-02-19T14:20:47;100100.98;;;5.12;59.60
39177;BME280;24904;52.208;21.192;2023-02-19T14:25:56;100112.39;;;5.08;59.98
39177;BME280;24904;52.208;21.192;2023-02-19T14:31:10;100116.36;;;5.06;59.80
39177;BME280;24904;52.208;21.192;2023-02-19T14:36:46;100117.89;;;5.05;59.39
39177;BME280;24904;52.208;21.192;2023-02-19T14:41:54;100111.84;;;5.00;59.61
39177;BME280;24904;52.208;21.192;2023-02-19T14:47:04;100119.40;;;5.04;59.43
39177;BME280;24904;52.208;21.192;2023-02-19T14:52:16;100126.74;;;4.99;58.57
39177;BME280;24904;52.208;21.192;2023-02-19T14:57:24;100136.48;;;5.00;58.54
39177;BME280;24904;52.208;21.192;2023-02-19T15:02:32;100142.14;;;4.99;58.57
39177;BME280;24904;52.208;21.192;2023-02-19T15:07:45;100146.36;;;4.98;58.65
39177;BME280;24904;52.208;21.192;2023-02-19T15:12:52;100152.59;;;4.95;57.89
39177;BME280;24904;52.208;21.192;2023-02-19T15:17:58;100163.92;;;4.94;58.18
39177;BME280;24904;52.208;21.192;2023-02-19T15:23:06;100167.88;;;4.92;58.16
39177;BME280;24904;52.208;21.192;2023-02-19T15:28:25;100183.02;;;4.92;58.26
39177;BME280;24904;52.208;21.192;2023-02-19T15:33:32;100186.29;;;4.92;58.26
39177;BME280;24904;52.208;21.192;2023-02-19T15:38:38;100196.70;;;4.87;57.71
39177;BME280;24904;52.208;21.192;2023-02-19T15:43:46;100201.66;;;4.81;57.33
39177;BME280;24904;52.208;21.192;2023-02-19T15:48:59;100210.20;;;4.78;58.08
39177;BME280;24904;52.208;21.192;2023-02-19T15:54:11;100212.17;;;4.69;58.04
39177;BME280;24904;52.208;21.192;2023-02-19T15:59:22;100215.04;;;4.66;57.98
39177;BME280;24904;52.208;21.192;2023-02-19T16:04:30;100224.22;;;4.62;57.88
39177;BME280;24904;52.208;21.192;2023-02-19T16:09:39;100229.50;;;4.57;57.65
39177;BME280;24904;52.208;21.192;2023-02-19T16:14:44;100242.02;;;4.51;57.86
39177;BME280;24904;52.208;21.192;2023-02-19T16:19:54;100247.02;;;4.54;58.10
39177;BME280;24904;52.208;21.192;2023-02-19T16:25:01;100254.59;;;4.51;58.35
39177;BME280;24904;52.208;21.192;2023-02-19T16:30:18;100263.33;;;4.42;58.55
39177;BME280;24904;52.208;21.192;2023-02-19T16:35:37;100274.48;;;4.28;58.62
39177;BME280;24904;52.208;21.192;2023-02-19T16:41:09;100281.13;;;4.24;59.00
39177;BME280;24904;52.208;21.192;2023-02-19T16:46:15;100286.14;;;4.22;58.72
39177;BME280;24904;52.208;21.192;2023-02-19T16:51:24;100301.33;;;4.18;58.82
39177;BME280;24904;52.208;21.192;2023-02-19T16:56:30;100305.61;;;4.19;59.21
39177;BME280;24904;52.208;21.192;2023-02-19T17:01:35;100306.02;;;4.19;58.83
39177;BME280;24904;52.208;21.192;2023-02-19T17:06:41;100304.39;;;4.24;59.14
39177;BME280;24904;52.208;21.192;2023-02-19T17:11:47;100308.46;;;4.27;58.87
39177;BME280;24904;52.208;21.192;2023-02-19T17:16:52;100311.02;;;4.24;58.67
39177;BME280;24904;52.208;21.192;2023-02-19T17:21:58;100310.56;;;4.24;58.67
39177;BME280;24904;52.208;21.192;2023-02-19T17:27:03;100318.86;;;4.29;58.32
39177;BME280;24904;52.208;21.192;2023-02-19T17:32:08;100324.49;;;4.30;58.58
39177;BME280;24904;52.208;21.192;2023-02-19T17:37:13;100330.41;;;4.28;57.56
39177;BME280;24904;52.208;21.192;2023-02-19T17:42:18;100334.39;;;4.24;57.73
39177;BME280;24904;52.208;21.192;2023-02-19T17:47:23;100348.12;;;4.20;57.39
39177;BME280;24904;52.208;21.192;2023-02-19T17:52:30;100354.36;;;4.16;56.91
39177;BME280;24904;52.208;21.192;2023-02-19T17:57:35;100362.78;;;4.15;56.65
39177;BME280;24904;52.208;21.192;2023-02-19T18:02:40;100366.60;;;4.11;56.31
39177;BME280;24904;52.208;21.192;2023-02-19T18:07:46;100377.48;;;4.07;56.23
39177;BME280;24904;52.208;21.192;2023-02-19T18:12:51;100392.91;;;4.03;55.44
39177;BME280;24904;52.208;21.192;2023-02-19T18:17:57;100404.06;;;3.98;55.99
39177;BME280;24904;52.208;21.192;2023-02-19T18:23:02;100415.55;;;3.96;55.88
39177;BME280;24904;52.208;21.192;2023-02-19T18:28:08;100417.65;;;3.90;55.64
39177;BME280;24904;52.208;21.192;2023-02-19T18:33:13;100419.79;;;3.82;55.41
39177;BME280;24904;52.208;21.192;2023-02-19T18:38:18;100421.41;;;3.79;54.92
39177;BME280;24904;52.208;21.192;2023-02-19T18:43:23;100423.93;;;3.76;54.63
39177;BME280;24904;52.208;21.192;2023-02-19T18:48:28;100424.59;;;3.69;54.13
39177;BME280;24904;52.208;21.192;2023-02-19T18:53:33;100425.89;;;3.63;54.76
39177;BME280;24904;52.208;21.192;2023-02-19T18:58:38;100426.69;;;3.59;54.51
39177;BME280;24904;52.208;21.192;2023-02-19T19:03:43;100434.75;;;3.55;54.47
39177;BME280;24904;52.208;21.192;2023-02-19T19:08:48;100445.50;;;3.50;54.39
39177;BME280;24904;52.208;21.192;2023-02-19T19:13:54;100453.98;;;3.46;54.75
39177;BME280;24904;52.208;21.192;2023-02-19T19:18:59;100465.03;;;3.40;54.54
39177;BME280;24904;52.208;21.192;2023-02-19T19:24:04;100468.61;;;3.39;54.96
39177;BME280;24904;52.208;21.192;2023-02-19T19:29:10;100474.36;;;3.30;54.42
39177;BME280;24904;52.208;21.192;2023-02-19T19:34:15;100476.77;;;3.22;54.03
39177;BME280;24904;52.208;21.192;2023-02-19T19:39:20;100488.16;;;3.19;54.50
39177;BME280;24904;52.208;21.192;2023-02-19T19:44:25;100499.84;;;3.13;54.32
39177;BME280;24904;52.208;21.192;2023-02-19T19:49:30;100506.07;;;3.12;54.94
39177;BME280;24904;52.208;21.192;2023-02-19T19:54:35;100510.25;;;3.06;54.74
39177;BME280;24904;52.208;21.192;2023-02-19T19:59:41;100512.32;;;2.98;54.87
39177;BME280;24904;52.208;21.192;2023-02-19T20:04:46;100515.46;;;2.94;55.22
39177;BME280;24904;52.208;21.192;2023-02-19T20:09:51;100512.83;;;2.87;55.12
39177;BME280;24904;52.208;21.192;2023-02-19T20:14:56;100517.37;;;2.85;55.13
39177;BME280;24904;52.208;21.192;2023-02-19T20:20:01;100512.45;;;2.77;54.98
39177;BME280;24904;52.208;21.192;2023-02-19T20:25:06;100517.47;;;2.71;55.27
39177;BME280;24904;52.208;21.192;2023-02-19T20:30:14;100518.86;;;2.75;55.21
39177;BME280;24904;52.208;21.192;2023-02-19T20:35:20;100517.63;;;2.64;54.56
39177;BME280;24904;52.208;21.192;2023-02-19T20:40:27;100536.80;;;2.56;54.93
39177;BME280;24904;52.208;21.192;2023-02-19T20:45:32;100543.94;;;2.55;54.86
39177;BME280;24904;52.208;21.192;2023-02-19T20:50:38;100557.77;;;2.53;54.85
39177;BME280;24904;52.208;21.192;2023-02-19T20:55:43;100567.22;;;2.48;55.02
39177;BME280;24904;52.208;21.192;2023-02-19T21:00:49;100576.50;;;2.43;55.24
39177;BME280;24904;52.208;21.192;2023-02-19T21:05:55;100575.64;;;2.43;55.49
39177;BME280;24904;52.208;21.192;2023-02-19T21:11:01;100580.06;;;2.41;55.70
39177;BME280;24904;52.208;21.192;2023-02-19T21:16:06;100591.69;;;2.38;55.99
39177;BME280;24904;52.208;21.192;2023-02-19T21:21:11;100591.58;;;2.32;55.72
39177;BME280;24904;52.208;21.192;2023-02-19T21:26:16;100598.04;;;2.27;56.02
39177;BME280;24904;52.208;21.192;2023-02-19T21:31:22;100594.45;;;2.21;56.33
39177;BME280;24904;52.208;21.192;2023-02-19T21:36:27;100587.14;;;2.12;56.58
39177;BME280;24904;52.208;21.192;2023-02-19T21:41:32;100585.54;;;2.13;56.84
39177;BME280;24904;52.208;21.192;2023-02-19T21:46:38;100596.04;;;2.14;57.11
39177;BME280;24904;52.208;21.192;2023-02-19T21:51:45;100595.29;;;2.13;57.24
39177;BME280;24904;52.208;21.192;2023-02-19T21:56:52;100599.88;;;2.09;57.29
39177;BME280;24904;52.208;21.192;2023-02-19T22:01:57;100606.20;;;2.08;57.35
39177;BME280;24904;52.208;21.192;2023-02-19T22:07:02;100606.63;;;2.06;57.37
39177;BME280;24904;52.208;21.192;2023-02-19T22:12:08;100606.30;;;2.04;57.79
39177;BME280;24904;52.208;21.192;2023-02-19T22:17:13;100610.35;;;2.03;57.63
39177;BME280;24904;52.208;21.192;2023-02-19T22:22:18;100613.90;;;1.98;58.14
39177;BME280;24904;52.208;21.192;2023-02-19T22:27:23;100622.12;;;1.94;58.26
39177;BME280;24904;52.208;21.192;2023-02-19T22:32:29;100628.77;;;1.96;58.63
39177;BME280;24904;52.208;21.192;2023-02-19T22:37:34;100629.85;;;1.97;58.80
39177;BME280;24904;52.208;21.192;2023-02-19T22:42:39;100628.73;;;1.99;58.95
39177;BME280;24904;52.208;21.192;2023-02-19T22:47:44;100611.44;;;2.01;59.11
39177;BME280;24904;52.208;21.192;2023-02-19T22:52:50;100614.08;;;1.95;59.22
39177;BME280;24904;52.208;21.192;2023-02-19T22:57:57;100620.30;;;2.05;59.69
39177;BME280;24904;52.208;21.192;2023-02-19T23:03:02;100612.63;;;2.08;59.46
39177;BME280;24904;52.208;21.192;2023-02-19T23:08:08;100622.11;;;2.04;59.90
39177;BME280;24904;52.208;21.192;2023-02-19T23:13:13;100613.82;;;2.01;60.11
39177;BME280;24904;52.208;21.192;2023-02-19T23:18:18;100606.42;;;1.98;60.35
39177;BME280;24904;52.208;21.192;2023-02-19T23:23:23;100611.95;;;1.95;60.78
39177;BME280;24904;52.208;21.192;2023-02-19T23:28:28;100611.92;;;1.92;61.19
39177;BME280;24904;52.208;21.192;2023-02-19T23:33:34;100623.47;;;1.88;61.40
39177;BME280;24904;52.208;21.192;2023-02-19T23:38:39;100633.89;;;1.86;61.93
39177;BME280;24904;52.208;21.192;2023-02-19T23:43:47;100634.05;;;1.88;62.35
39177;BME280;24904;52.208;21.192;2023-02-19T23:48:52;100637.45;;;1.86;62.86
39177;BME280;24904;52.208;21.192;2023-02-19T23:53:57;100634.16;;;1.82;65.01
39177;BME280;24904;52.208;21.192;2023-02-19T23:59:02;100623.67;;;1.67;66.70
